American Canyon, CA

1:47 AM PDT on September 19, 2014 (GMT -0700)
Travis Air Force Base | Change Station
CLOSE
Current Station
Airport
Location: Fairfield,
Elevation: 62 ft
Nearby Weather Stations

Elev 62 ft 38.27 °N, 121.95 °W | Updated 49 minutes ago

Clear
Clear
64 °F
Feels Like 64 °F
N
14
Wind Variable Wind from SW

Today
High -- | Low -- °F
--% Chance of Precip.
Yesterday
High -- | Low -- °F
Precip. -- in
6:54 AM 7:10 PM
Waning Crescent, 20% visible
Pressure 29.86 in
Visibility 10.0 miles
Clouds Clear
Dew Point 63 °F
Humidity 99%
Rainfall 0.00 in
Snow Depth Not available.
UV 0 out of 12
Pollen 5.10 out of 12
PM2.5 Good
Flu Activity Not available.
METAR KSUU 190758Z AUTO 23012KT 10SM CLR 18/17 A2984 RMK AO2 SLP111 T01750173 402710174 $

More Conditions Fewer Conditions

Pressure 29.86 in
Visibility 10.0 miles
Clouds Clear
Dew Point 63 °F
Humidity 99%
Rainfall 0.00 in
Snow Depth Not available.
UV 0 out of 12
Pollen 5.10 out of 12
PM2.5 Good
Flu Activity Not available.
METAR KSUU 190758Z AUTO 23012KT 10SM CLR 18/17 A2984 RMK AO2 SLP111 T01750173 402710174 $

More Conditions Fewer Conditions

10-Day Weather Forecast

Almanac

Astronomy

Sep. 19, 2014 Rise Set
Actual Time 6:54 AM PDT 7:10 PM PDT
Civil Twilight 6:27 AM PDT 7:36 PM PDT
Nautical Twilight 5:56 AM PDT 8:07 PM PDT
Astronomical Twilight 5:25 AM PDT 8:39 PM PDT
Moon 2:47 AM PDT 4:40 PM PDT
Length of Visible Light 13h 09m
Length of Day
12h 16m
Tomorrow will be 2m 26s shorter.
Waning Crescent, 20% of the Moon is Illuminated
Today
Waning Crescent
Sep 24
New
Oct 1
First Quarter
Oct 8
Full
Oct 15
Last Quarter

Today's Extremes

State Highs State Lows

Community

WunderPhotos

Upload Photos

1,754,581 photos uploaded!

Nearby

Air Quality

  Air Quality AQ Index Pollutant
Yesterday Good
OZONE
Yesterday Good
PM2.5
Current Good
PM2.5
Friday Good
PM2.5
Saturday Moderate
PM2.5
Sunday Moderate
PM2.5
Monday Moderate
PM2.5
Tuesday Moderate
PM2.5

Snow Depth

Station Depth Elevation
Tahoe City Cross 0 in 6750 ft
Echo Peak 1 in 7800 ft
Fallen Leaf 0 in 6300 ft
Leavitt Meadows 0 in 7200 ft
Heavenly Valley 0 in 8850 ft

Earthquake Activity

City Distance Mag. Time & Date
The Geysers, California 47 miles 2.5 11:29 PM PDT
2014-09-17
Cobb, California 49 miles 2.7 1:23 PM PDT
2014-09-16
Minimum magnitude displayed is 2.5.

Coastal Water Temperatures

Place Temperature
San Francisco, CA 64.9 °F
Richmond, CA 68.0 °F
Port Chicago, CA 70.0 °F

Nearby Weather Stations